sensor_id;sensor_type;location;lat;lon;timestamp;temperature;humidity
21298;DHT22;10808;48.010;11.326;2023-06-24T00:00:22;17.70;99.90
21298;DHT22;10808;48.010;11.326;2023-06-24T00:03:07;17.70;99.90
21298;DHT22;10808;48.010;11.326;2023-06-24T00:05:34;17.70;99.90
21298;DHT22;10808;48.010;11.326;2023-06-24T00:08:00;17.70;99.90
21298;DHT22;10808;48.010;11.326;2023-06-24T00:10:28;17.70;99.90
21298;DHT22;10808;48.010;11.326;2023-06-24T00:12:55;17.70;99.90
21298;DHT22;10808;48.010;11.326;2023-06-24T00:15:21;17.70;99.90
21298;DHT22;10808;48.010;11.326;2023-06-24T00:17:47;17.60;99.90
21298;DHT22;10808;48.010;11.326;2023-06-24T00:20:14;17.60;99.90
21298;DHT22;10808;48.010;11.326;2023-06-24T00:22:40;17.60;99.90
21298;DHT22;10808;48.010;11.326;2023-06-24T00:25:10;17.50;99.90
21298;DHT22;10808;48.010;11.326;2023-06-24T00:27:36;17.50;99.90
21298;DHT22;10808;48.010;11.326;2023-06-24T00:30:02;17.60;99.90
21298;DHT22;10808;48.010;11.326;2023-06-24T00:32:28;17.60;99.90
21298;DHT22;10808;48.010;11.326;2023-06-24T00:34:54;17.60;99.90
21298;DHT22;10808;48.010;11.326;2023-06-24T00:37:23;17.60;99.90
21298;DHT22;10808;48.010;11.326;2023-06-24T00:39:49;17.60;99.90
21298;DHT22;10808;48.010;11.326;2023-06-24T00:42:15;17.60;99.90
21298;DHT22;10808;48.010;11.326;2023-06-24T00:44:41;17.70;99.90
21298;DHT22;10808;48.010;11.326;2023-06-24T00:47:07;17.60;99.90
21298;DHT22;10808;48.010;11.326;2023-06-24T00:49:34;17.60;99.90
21298;DHT22;10808;48.010;11.326;2023-06-24T00:52:00;17.60;99.90
21298;DHT22;10808;48.010;11.326;2023-06-24T00:54:26;17.70;99.90
21298;DHT22;10808;48.010;11.326;2023-06-24T00:56:57;17.60;99.90
21298;DHT22;10808;48.010;11.326;2023-06-24T00:59:27;17.60;99.90
21298;DHT22;10808;48.010;11.326;2023-06-24T01:01:58;17.60;99.90
21298;DHT22;10808;48.010;11.326;2023-06-24T01:04:31;17.60;99.90
21298;DHT22;10808;48.010;11.326;2023-06-24T01:06:59;17.60;99.90
21298;DHT22;10808;48.010;11.326;2023-06-24T01:09:26;17.60;99.90
21298;DHT22;10808;48.010;11.326;2023-06-24T01:11:53;17.60;99.90
21298;DHT22;10808;48.010;11.326;2023-06-24T01:14:19;17.60;99.90
21298;DHT22;10808;48.010;11.326;2023-06-24T01:17:02;17.70;99.90
21298;DHT22;10808;48.010;11.326;2023-06-24T01:25:37;17.60;99.90
21298;DHT22;10808;48.010;11.326;2023-06-24T01:31:26;17.60;99.90
21298;DHT22;10808;48.010;11.326;2023-06-24T01:36:39;17.50;99.90
21298;DHT22;10808;48.010;11.326;2023-06-24T01:39:09;17.50;99.90
21298;DHT22;10808;48.010;11.326;2023-06-24T01:41:42;17.50;99.90
21298;DHT22;10808;48.010;11.326;2023-06-24T01:44:13;17.40;99.90
21298;DHT22;10808;48.010;11.326;2023-06-24T01:46:41;17.40;99.90
21298;DHT22;10808;48.010;11.326;2023-06-24T01:49:11;17.40;99.90
21298;DHT22;10808;48.010;11.326;2023-06-24T01:51:39;17.30;99.90
21298;DHT22;10808;48.010;11.326;2023-06-24T01:54:10;17.30;99.90
21298;DHT22;10808;48.010;11.326;2023-06-24T01:56:39;17.20;99.90
21298;DHT22;10808;48.010;11.326;2023-06-24T01:59:06;17.10;99.90
21298;DHT22;10808;48.010;11.326;2023-06-24T02:01:44;17.10;99.90
21298;DHT22;10808;48.010;11.326;2023-06-24T02:04:11;17.00;99.90
21298;DHT22;10808;48.010;11.326;2023-06-24T02:06:39;16.90;99.90
21298;DHT22;10808;48.010;11.326;2023-06-24T02:09:06;16.90;99.90
21298;DHT22;10808;48.010;11.326;2023-06-24T02:11:33;16.90;99.90
21298;DHT22;10808;48.010;11.326;2023-06-24T02:14:02;16.80;99.90
21298;DHT22;10808;48.010;11.326;2023-06-24T02:16:29;16.80;99.90
21298;DHT22;10808;48.010;11.326;2023-06-24T02:18:56;16.80;99.90
21298;DHT22;10808;48.010;11.326;2023-06-24T02:21:23;16.80;99.90
21298;DHT22;10808;48.010;11.326;2023-06-24T02:23:51;16.80;99.90
21298;DHT22;10808;48.010;11.326;2023-06-24T02:26:17;16.80;99.90
21298;DHT22;10808;48.010;11.326;2023-06-24T02:28:44;16.80;99.90
21298;DHT22;10808;48.010;11.326;2023-06-24T02:31:20;16.80;99.90
21298;DHT22;10808;48.010;11.326;2023-06-24T02:33:46;16.70;99.90
21298;DHT22;10808;48.010;11.326;2023-06-24T02:36:12;16.70;99.90
21298;DHT22;10808;48.010;11.326;2023-06-24T02:38:38;16.70;99.90
21298;DHT22;10808;48.010;11.326;2023-06-24T02:41:04;16.70;99.90
21298;DHT22;10808;48.010;11.326;2023-06-24T02:43:32;16.80;99.90
21298;DHT22;10808;48.010;11.326;2023-06-24T02:45:59;16.80;99.90
21298;DHT22;10808;48.010;11.326;2023-06-24T02:48:29;16.80;99.90
21298;DHT22;10808;48.010;11.326;2023-06-24T02:50:58;16.80;99.90
21298;DHT22;10808;48.010;11.326;2023-06-24T02:53:24;16.80;99.90
21298;DHT22;10808;48.010;11.326;2023-06-24T02:55:51;16.70;99.90
21298;DHT22;10808;48.010;11.326;2023-06-24T02:58:20;16.70;99.90
21298;DHT22;10808;48.010;11.326;2023-06-24T03:00:47;16.60;99.90
21298;DHT22;10808;48.010;11.326;2023-06-24T03:03:16;16.60;99.90
21298;DHT22;10808;48.010;11.326;2023-06-24T03:05:42;16.70;99.90
21298;DHT22;10808;48.010;11.326;2023-06-24T03:08:10;16.70;99.90
21298;DHT22;10808;48.010;11.326;2023-06-24T03:10:37;16.70;99.90
21298;DHT22;10808;48.010;11.326;2023-06-24T03:13:04;16.70;99.90
21298;DHT22;10808;48.010;11.326;2023-06-24T03:15:30;16.70;99.90
21298;DHT22;10808;48.010;11.326;2023-06-24T03:17:57;16.70;99.90
21298;DHT22;10808;48.010;11.326;2023-06-24T03:20:23;16.80;99.90
21298;DHT22;10808;48.010;11.326;2023-06-24T03:22:49;16.80;99.90
21298;DHT22;10808;48.010;11.326;2023-06-24T03:25:15;16.80;99.90
21298;DHT22;10808;48.010;11.326;2023-06-24T03:27:41;16.70;99.90
21298;DHT22;10808;48.010;11.326;2023-06-24T03:33:28;16.80;99.90
21298;DHT22;10808;48.010;11.326;2023-06-24T03:35:54;16.80;99.90
21298;DHT22;10808;48.010;11.326;2023-06-24T03:38:23;16.80;99.90
21298;DHT22;10808;48.010;11.326;2023-06-24T03:40:49;16.80;99.90
21298;DHT22;10808;48.010;11.326;2023-06-24T03:43:15;16.70;99.90
21298;DHT22;10808;48.010;11.326;2023-06-24T03:45:41;16.70;99.90
21298;DHT22;10808;48.010;11.326;2023-06-24T03:48:07;16.60;99.90
21298;DHT22;10808;48.010;11.326;2023-06-24T03:50:33;16.70;99.90
21298;DHT22;10808;48.010;11.326;2023-06-24T03:52:59;16.70;99.90
21298;DHT22;10808;48.010;11.326;2023-06-24T03:55:25;16.70;99.90
21298;DHT22;10808;48.010;11.326;2023-06-24T03:57:51;16.70;99.90
21298;DHT22;10808;48.010;11.326;2023-06-24T04:00:17;16.70;99.90
21298;DHT22;10808;48.010;11.326;2023-06-24T04:02:46;16.70;99.90
21298;DHT22;10808;48.010;11.326;2023-06-24T04:05:13;16.60;99.90
21298;DHT22;10808;48.010;11.326;2023-06-24T04:07:39;16.60;99.90
21298;DHT22;10808;48.010;11.326;2023-06-24T04:10:05;16.60;99.90
21298;DHT22;10808;48.010;11.326;2023-06-24T04:12:35;16.60;99.90
21298;DHT22;10808;48.010;11.326;2023-06-24T04:15:02;16.70;99.90
21298;DHT22;10808;48.010;11.326;2023-06-24T04:17:29;16.70;99.90
21298;DHT22;10808;48.010;11.326;2023-06-24T04:19:55;16.80;99.90
21298;DHT22;10808;48.010;11.326;2023-06-24T04:22:21;16.90;99.90
21298;DHT22;10808;48.010;11.326;2023-06-24T04:24:48;16.90;99.90
21298;DHT22;10808;48.010;11.326;2023-06-24T04:27:14;16.90;99.90
21298;DHT22;10808;48.010;11.326;2023-06-24T04:29:40;16.90;99.90
21298;DHT22;10808;48.010;11.326;2023-06-24T04:32:06;17.00;99.90
21298;DHT22;10808;48.010;11.326;2023-06-24T04:34:32;17.00;99.90
21298;DHT22;10808;48.010;11.326;2023-06-24T04:36:58;17.00;99.90
21298;DHT22;10808;48.010;11.326;2023-06-24T04:39:24;17.10;99.90
21298;DHT22;10808;48.010;11.326;2023-06-24T04:41:50;17.10;99.90
21298;DHT22;10808;48.010;11.326;2023-06-24T04:44:16;17.10;99.90
21298;DHT22;10808;48.010;11.326;2023-06-24T04:46:42;17.10;99.90
21298;DHT22;10808;48.010;11.326;2023-06-24T04:49:08;17.20;99.90
21298;DHT22;10808;48.010;11.326;2023-06-24T04:51:35;17.20;99.90
21298;DHT22;10808;48.010;11.326;2023-06-24T04:54:02;17.20;99.90
21298;DHT22;10808;48.010;11.326;2023-06-24T04:56:29;17.20;99.90
21298;DHT22;10808;48.010;11.326;2023-06-24T04:58:55;17.20;99.90
21298;DHT22;10808;48.010;11.326;2023-06-24T05:01:22;17.20;99.90
21298;DHT22;10808;48.010;11.326;2023-06-24T05:03:48;17.30;99.90
21298;DHT22;10808;48.010;11.326;2023-06-24T05:06:14;17.30;99.90
21298;DHT22;10808;48.010;11.326;2023-06-24T05:08:40;17.40;99.90
21298;DHT22;10808;48.010;11.326;2023-06-24T05:11:06;17.40;99.90
21298;DHT22;10808;48.010;11.326;2023-06-24T05:13:32;17.40;99.90
21298;DHT22;10808;48.010;11.326;2023-06-24T05:15:58;17.40;99.90
21298;DHT22;10808;48.010;11.326;2023-06-24T05:18:24;17.50;99.90
21298;DHT22;10808;48.010;11.326;2023-06-24T05:20:50;17.60;99.90
21298;DHT22;10808;48.010;11.326;2023-06-24T05:23:16;17.70;99.90
21298;DHT22;10808;48.010;11.326;2023-06-24T05:25:42;17.70;99.90
21298;DHT22;10808;48.010;11.326;2023-06-24T05:28:08;17.80;99.90
21298;DHT22;10808;48.010;11.326;2023-06-24T05:30:34;17.80;99.90
21298;DHT22;10808;48.010;11.326;2023-06-24T05:33:00;17.90;99.90
21298;DHT22;10808;48.010;11.326;2023-06-24T05:35:26;18.00;99.90
21298;DHT22;10808;48.010;11.326;2023-06-24T05:37:52;18.00;99.90
21298;DHT22;10808;48.010;11.326;2023-06-24T05:40:18;18.10;99.90
21298;DHT22;10808;48.010;11.326;2023-06-24T05:42:44;18.10;99.90
21298;DHT22;10808;48.010;11.326;2023-06-24T05:45:10;18.10;99.90
21298;DHT22;10808;48.010;11.326;2023-06-24T05:47:37;18.10;99.90
21298;DHT22;10808;48.010;11.326;2023-06-24T05:50:04;18.20;99.90
21298;DHT22;10808;48.010;11.326;2023-06-24T05:52:30;18.20;99.90
21298;DHT22;10808;48.010;11.326;2023-06-24T05:54:56;18.30;99.90
21298;DHT22;10808;48.010;11.326;2023-06-24T05:57:22;18.40;99.90
21298;DHT22;10808;48.010;11.326;2023-06-24T06:00:02;18.40;99.90
21298;DHT22;10808;48.010;11.326;2023-06-24T06:02:29;18.40;99.90
21298;DHT22;10808;48.010;11.326;2023-06-24T06:04:55;18.40;99.90
21298;DHT22;10808;48.010;11.326;2023-06-24T06:07:21;18.50;99.90
21298;DHT22;10808;48.010;11.326;2023-06-24T06:09:47;18.50;99.90
21298;DHT22;10808;48.010;11.326;2023-06-24T06:12:13;18.60;99.90
21298;DHT22;10808;48.010;11.326;2023-06-24T06:14:39;18.60;99.90
21298;DHT22;10808;48.010;11.326;2023-06-24T06:17:05;18.60;99.90
21298;DHT22;10808;48.010;11.326;2023-06-24T06:19:31;18.60;99.90
21298;DHT22;10808;48.010;11.326;2023-06-24T06:21:57;18.60;99.90
21298;DHT22;10808;48.010;11.326;2023-06-24T06:24:23;18.70;99.90
21298;DHT22;10808;48.010;11.326;2023-06-24T06:26:49;18.80;99.90
21298;DHT22;10808;48.010;11.326;2023-06-24T06:29:15;19.00;99.90
21298;DHT22;10808;48.010;11.326;2023-06-24T06:31:41;19.00;99.90
21298;DHT22;10808;48.010;11.326;2023-06-24T06:34:07;19.10;99.90
21298;DHT22;10808;48.010;11.326;2023-06-24T06:36:34;19.10;99.90
21298;DHT22;10808;48.010;11.326;2023-06-24T06:39:00;19.10;99.90
21298;DHT22;10808;48.010;11.326;2023-06-24T06:41:26;19.20;99.90
21298;DHT22;10808;48.010;11.326;2023-06-24T06:43:53;19.30;99.90
21298;DHT22;10808;48.010;11.326;2023-06-24T06:46:19;19.40;99.90
21298;DHT22;10808;48.010;11.326;2023-06-24T06:48:45;19.50;99.90
21298;DHT22;10808;48.010;11.326;2023-06-24T06:51:13;19.60;99.90
21298;DHT22;10808;48.010;11.326;2023-06-24T06:53:39;19.70;99.90
21298;DHT22;10808;48.010;11.326;2023-06-24T06:56:05;19.80;99.90
21298;DHT22;10808;48.010;11.326;2023-06-24T06:58:31;19.80;99.90
21298;DHT22;10808;48.010;11.326;2023-06-24T07:00:57;19.90;99.90
21298;DHT22;10808;48.010;11.326;2023-06-24T07:03:27;20.00;99.90
21298;DHT22;10808;48.010;11.326;2023-06-24T07:05:54;20.00;99.90
21298;DHT22;10808;48.010;11.326;2023-06-24T07:08:20;20.10;99.90
21298;DHT22;10808;48.010;11.326;2023-06-24T07:10:46;20.00;99.70
21298;DHT22;10808;48.010;11.326;2023-06-24T07:13:12;20.10;99.90
21298;DHT22;10808;48.010;11.326;2023-06-24T07:15:38;20.20;99.50
21298;DHT22;10808;48.010;11.326;2023-06-24T07:18:04;20.30;99.50
21298;DHT22;10808;48.010;11.326;2023-06-24T07:20:30;20.30;99.40
21298;DHT22;10808;48.010;11.326;2023-06-24T07:22:56;20.50;99.60
21298;DHT22;10808;48.010;11.326;2023-06-24T07:25:22;20.70;99.40
21298;DHT22;10808;48.010;11.326;2023-06-24T07:27:48;20.70;98.20
21298;DHT22;10808;48.010;11.326;2023-06-24T07:30:14;20.80;97.90
21298;DHT22;10808;48.010;11.326;2023-06-24T07:32:40;21.00;98.00
21298;DHT22;10808;48.010;11.326;2023-06-24T07:35:06;21.10;98.10
21298;DHT22;10808;48.010;11.326;2023-06-24T07:37:33;21.20;97.60
21298;DHT22;10808;48.010;11.326;2023-06-24T07:39:59;21.30;97.10
21298;DHT22;10808;48.010;11.326;2023-06-24T07:42:25;21.60;97.50
21298;DHT22;10808;48.010;11.326;2023-06-24T07:44:51;21.60;96.80
21298;DHT22;10808;48.010;11.326;2023-06-24T07:47:17;22.00;96.60
21298;DHT22;10808;48.010;11.326;2023-06-24T07:49:47;22.20;95.50
21298;DHT22;10808;48.010;11.326;2023-06-24T07:52:13;22.20;94.80
21298;DHT22;10808;48.010;11.326;2023-06-24T07:54:40;22.20;94.20
21298;DHT22;10808;48.010;11.326;2023-06-24T07:57:09;22.20;94.80
21298;DHT22;10808;48.010;11.326;2023-06-24T07:59:35;22.30;94.10
21298;DHT22;10808;48.010;11.326;2023-06-24T08:02:02;22.30;92.20
21298;DHT22;10808;48.010;11.326;2023-06-24T08:04:28;22.30;92.40
21298;DHT22;10808;48.010;11.326;2023-06-24T08:06:54;22.30;92.70
21298;DHT22;10808;48.010;11.326;2023-06-24T08:09:20;22.40;93.90
21298;DHT22;10808;48.010;11.326;2023-06-24T08:11:46;22.50;92.90
21298;DHT22;10808;48.010;11.326;2023-06-24T08:14:12;22.70;93.00
21298;DHT22;10808;48.010;11.326;2023-06-24T08:16:38;22.90;92.90
21298;DHT22;10808;48.010;11.326;2023-06-24T08:19:04;23.00;92.50
21298;DHT22;10808;48.010;11.326;2023-06-24T08:21:30;23.00;92.30
21298;DHT22;10808;48.010;11.326;2023-06-24T08:23:56;23.20;92.60
21298;DHT22;10808;48.010;11.326;2023-06-24T08:26:22;23.40;92.30
21298;DHT22;10808;48.010;11.326;2023-06-24T08:28:48;23.50;91.50
21298;DHT22;10808;48.010;11.326;2023-06-24T08:31:15;23.70;91.40
21298;DHT22;10808;48.010;11.326;2023-06-24T08:33:44;24.10;92.20
21298;DHT22;10808;48.010;11.326;2023-06-24T08:36:13;24.50;91.40
21298;DHT22;10808;48.010;11.326;2023-06-24T08:38:39;25.00;91.10
21298;DHT22;10808;48.010;11.326;2023-06-24T08:41:05;25.40;89.10
21298;DHT22;10808;48.010;11.326;2023-06-24T08:43:31;25.50;87.00
21298;DHT22;10808;48.010;11.326;2023-06-24T08:45:57;25.30;86.60
21298;DHT22;10808;48.010;11.326;2023-06-24T08:48:24;25.40;86.80
21298;DHT22;10808;48.010;11.326;2023-06-24T08:50:52;25.50;86.00
21298;DHT22;10808;48.010;11.326;2023-06-24T08:53:21;25.30;84.70
21298;DHT22;10808;48.010;11.326;2023-06-24T08:55:49;25.20;85.70
21298;DHT22;10808;48.010;11.326;2023-06-24T08:58:19;25.70;86.60
21298;DHT22;10808;48.010;11.326;2023-06-24T09:00:45;26.10;83.90
21298;DHT22;10808;48.010;11.326;2023-06-24T09:03:11;26.40;83.90
21298;DHT22;10808;48.010;11.326;2023-06-24T09:05:37;26.60;81.70
21298;DHT22;10808;48.010;11.326;2023-06-24T09:08:04;26.80;83.00
21298;DHT22;10808;48.010;11.326;2023-06-24T09:10:34;27.10;81.60
21298;DHT22;10808;48.010;11.326;2023-06-24T09:13:05;27.10;79.50
21298;DHT22;10808;48.010;11.326;2023-06-24T09:15:35;27.00;79.70
21298;DHT22;10808;48.010;11.326;2023-06-24T09:18:03;27.20;79.60
21298;DHT22;10808;48.010;11.326;2023-06-24T09:20:31;27.10;79.30
21298;DHT22;10808;48.010;11.326;2023-06-24T09:23:03;27.20;79.10
21298;DHT22;10808;48.010;11.326;2023-06-24T09:25:30;27.20;78.10
21298;DHT22;10808;48.010;11.326;2023-06-24T09:28:03;27.20;77.00
21298;DHT22;10808;48.010;11.326;2023-06-24T09:30:29;27.20;78.70
21298;DHT22;10808;48.010;11.326;2023-06-24T09:32:56;27.10;77.50
21298;DHT22;10808;48.010;11.326;2023-06-24T09:35:26;26.90;77.20
21298;DHT22;10808;48.010;11.326;2023-06-24T09:37:53;26.60;77.70
21298;DHT22;10808;48.010;11.326;2023-06-24T09:40:20;26.70;78.70
21298;DHT22;10808;48.010;11.326;2023-06-24T09:45:21;26.80;76.50
21298;DHT22;10808;48.010;11.326;2023-06-24T09:47:47;26.80;76.80
21298;DHT22;10808;48.010;11.326;2023-06-24T09:50:13;26.90;77.40
21298;DHT22;10808;48.010;11.326;2023-06-24T09:52:39;27.10;76.70
21298;DHT22;10808;48.010;11.326;2023-06-24T09:55:07;27.20;76.60
21298;DHT22;10808;48.010;11.326;2023-06-24T09:57:35;27.10;76.50
21298;DHT22;10808;48.010;11.326;2023-06-24T10:00:02;27.10;75.60
21298;DHT22;10808;48.010;11.326;2023-06-24T10:02:31;27.10;76.00
21298;DHT22;10808;48.010;11.326;2023-06-24T10:04:59;27.10;75.10
21298;DHT22;10808;48.010;11.326;2023-06-24T10:07:25;26.90;74.80
21298;DHT22;10808;48.010;11.326;2023-06-24T10:09:53;26.70;75.20
21298;DHT22;10808;48.010;11.326;2023-06-24T10:12:19;26.70;75.30
21298;DHT22;10808;48.010;11.326;2023-06-24T10:14:45;26.60;75.50
21298;DHT22;10808;48.010;11.326;2023-06-24T10:17:12;26.40;75.90
21298;DHT22;10808;48.010;11.326;2023-06-24T10:19:39;26.50;77.70
21298;DHT22;10808;48.010;11.326;2023-06-24T10:22:09;26.70;77.00
21298;DHT22;10808;48.010;11.326;2023-06-24T10:24:40;26.80;76.90
21298;DHT22;10808;48.010;11.326;2023-06-24T10:27:16;26.90;76.60
21298;DHT22;10808;48.010;11.326;2023-06-24T10:29:46;26.90;75.30
21298;DHT22;10808;48.010;11.326;2023-06-24T10:32:13;26.70;76.10
21298;DHT22;10808;48.010;11.326;2023-06-24T10:34:40;26.60;76.20
21298;DHT22;10808;48.010;11.326;2023-06-24T10:39:49;26.20;75.10
21298;DHT22;10808;48.010;11.326;2023-06-24T10:47:40;26.70;74.20
21298;DHT22;10808;48.010;11.326;2023-06-24T10:50:08;26.70;75.10
21298;DHT22;10808;48.010;11.326;2023-06-24T10:52:39;26.60;73.70
21298;DHT22;10808;48.010;11.326;2023-06-24T10:55:06;26.70;76.20
21298;DHT22;10808;48.010;11.326;2023-06-24T10:57:33;26.80;76.30
21298;DHT22;10808;48.010;11.326;2023-06-24T11:00:00;26.90;75.00
21298;DHT22;10808;48.010;11.326;2023-06-24T11:02:27;27.00;74.00
21298;DHT22;10808;48.010;11.326;2023-06-24T11:04:59;27.00;73.70
21298;DHT22;10808;48.010;11.326;2023-06-24T11:07:31;27.00;73.80
21298;DHT22;10808;48.010;11.326;2023-06-24T11:10:07;26.90;75.20
21298;DHT22;10808;48.010;11.326;2023-06-24T11:12:35;27.00;73.40
21298;DHT22;10808;48.010;11.326;2023-06-24T11:15:04;27.00;73.60
21298;DHT22;10808;48.010;11.326;2023-06-24T11:17:30;27.30;74.10
21298;DHT22;10808;48.010;11.326;2023-06-24T11:19:57;27.70;74.60
21298;DHT22;10808;48.010;11.326;2023-06-24T11:22:24;28.00;72.80
21298;DHT22;10808;48.010;11.326;2023-06-24T11:24:51;28.10;71.60
21298;DHT22;10808;48.010;11.326;2023-06-24T11:27:24;28.10;68.20
21298;DHT22;10808;48.010;11.326;2023-06-24T11:29:52;28.00;69.70
21298;DHT22;10808;48.010;11.326;2023-06-24T11:32:19;28.10;68.80
21298;DHT22;10808;48.010;11.326;2023-06-24T11:34:46;28.30;69.80
21298;DHT22;10808;48.010;11.326;2023-06-24T11:37:13;28.60;69.20
21298;DHT22;10808;48.010;11.326;2023-06-24T11:39:39;28.90;69.60
21298;DHT22;10808;48.010;11.326;2023-06-24T11:42:07;29.40;68.20
21298;DHT22;10808;48.010;11.326;2023-06-24T11:44:41;29.70;68.70
21298;DHT22;10808;48.010;11.326;2023-06-24T11:47:11;29.90;68.00
21298;DHT22;10808;48.010;11.326;2023-06-24T11:49:51;30.20;67.40
21298;DHT22;10808;48.010;11.326;2023-06-24T11:55:00;31.10;64.20
21298;DHT22;10808;48.010;11.326;2023-06-24T12:00:35;31.10;62.30
21298;DHT22;10808;48.010;11.326;2023-06-24T12:03:03;31.30;60.90
21298;DHT22;10808;48.010;11.326;2023-06-24T12:05:34;31.40;60.60
21298;DHT22;10808;48.010;11.326;2023-06-24T12:08:11;31.60;60.30
21298;DHT22;10808;48.010;11.326;2023-06-24T12:10:38;31.90;60.00
21298;DHT22;10808;48.010;11.326;2023-06-24T12:13:05;32.40;59.70
21298;DHT22;10808;48.010;11.326;2023-06-24T12:15:32;32.60;58.00
21298;DHT22;10808;48.010;11.326;2023-06-24T12:17:58;33.00;58.30
21298;DHT22;10808;48.010;11.326;2023-06-24T12:20:25;33.50;58.00
21298;DHT22;10808;48.010;11.326;2023-06-24T12:22:51;34.10;57.50
21298;DHT22;10808;48.010;11.326;2023-06-24T12:25:18;34.20;54.20
21298;DHT22;10808;48.010;11.326;2023-06-24T12:27:44;34.30;56.00
21298;DHT22;10808;48.010;11.326;2023-06-24T12:30:20;34.20;53.00
21298;DHT22;10808;48.010;11.326;2023-06-24T12:32:46;33.80;54.70
21298;DHT22;10808;48.010;11.326;2023-06-24T12:35:12;33.60;54.50
21298;DHT22;10808;48.010;11.326;2023-06-24T12:37:38;33.10;54.90
21298;DHT22;10808;48.010;11.326;2023-06-24T12:40:05;33.00;56.90
21298;DHT22;10808;48.010;11.326;2023-06-24T12:42:31;33.30;57.20
21298;DHT22;10808;48.010;11.326;2023-06-24T12:44:57;33.60;56.40
21298;DHT22;10808;48.010;11.326;2023-06-24T12:47:26;33.50;55.10
21298;DHT22;10808;48.010;11.326;2023-06-24T12:49:55;33.50;56.10
21298;DHT22;10808;48.010;11.326;2023-06-24T12:52:24;33.90;55.40
21298;DHT22;10808;48.010;11.326;2023-06-24T12:54:50;34.10;54.50
21298;DHT22;10808;48.010;11.326;2023-06-24T12:57:18;34.20;54.70
21298;DHT22;10808;48.010;11.326;2023-06-24T12:59:45;34.00;53.50
21298;DHT22;10808;48.010;11.326;2023-06-24T13:02:14;33.50;52.50
21298;DHT22;10808;48.010;11.326;2023-06-24T13:04:42;33.10;54.70
21298;DHT22;10808;48.010;11.326;2023-06-24T13:07:08;33.30;54.80
21298;DHT22;10808;48.010;11.326;2023-06-24T13:09:35;33.80;56.00
21298;DHT22;10808;48.010;11.326;2023-06-24T13:12:01;34.20;53.40
21298;DHT22;10808;48.010;11.326;2023-06-24T13:14:27;34.30;53.50
21298;DHT22;10808;48.010;11.326;2023-06-24T13:16:57;34.30;54.00
21298;DHT22;10808;48.010;11.326;2023-06-24T13:19:23;34.30;54.90
21298;DHT22;10808;48.010;11.326;2023-06-24T13:21:49;34.40;53.30
21298;DHT22;10808;48.010;11.326;2023-06-24T13:24:35;34.50;54.30
21298;DHT22;10808;48.010;11.326;2023-06-24T13:27:01;34.40;53.50
21298;DHT22;10808;48.010;11.326;2023-06-24T13:29:27;34.50;53.80
21298;DHT22;10808;48.010;11.326;2023-06-24T13:31:53;34.70;53.80
21298;DHT22;10808;48.010;11.326;2023-06-24T13:34:19;34.80;52.30
21298;DHT22;10808;48.010;11.326;2023-06-24T13:36:45;34.60;52.40
21298;DHT22;10808;48.010;11.326;2023-06-24T13:39:12;34.50;53.00
21298;DHT22;10808;48.010;11.326;2023-06-24T13:41:39;34.80;53.00
21298;DHT22;10808;48.010;11.326;2023-06-24T13:44:05;35.00;52.50
21298;DHT22;10808;48.010;11.326;2023-06-24T13:46:32;35.20;51.50
21298;DHT22;10808;48.010;11.326;2023-06-24T13:48:58;35.30;50.40
21298;DHT22;10808;48.010;11.326;2023-06-24T13:51:24;35.10;50.70
21298;DHT22;10808;48.010;11.326;2023-06-24T13:53:52;35.10;52.00
21298;DHT22;10808;48.010;11.326;2023-06-24T13:56:21;35.10;51.30
21298;DHT22;10808;48.010;11.326;2023-06-24T13:58:48;35.10;50.60
21298;DHT22;10808;48.010;11.326;2023-06-24T14:01:15;35.00;50.00
21298;DHT22;10808;48.010;11.326;2023-06-24T14:03:41;35.00;50.00
21298;DHT22;10808;48.010;11.326;2023-06-24T14:06:08;34.50;51.20
21298;DHT22;10808;48.010;11.326;2023-06-24T14:08:35;34.30;51.70
21298;DHT22;10808;48.010;11.326;2023-06-24T14:11:02;34.10;51.20
21298;DHT22;10808;48.010;11.326;2023-06-24T14:13:28;34.00;50.90
21298;DHT22;10808;48.010;11.326;2023-06-24T14:15:55;34.10;52.30
21298;DHT22;10808;48.010;11.326;2023-06-24T14:18:22;34.50;52.10
21298;DHT22;10808;48.010;11.326;2023-06-24T14:20:48;34.80;51.10
21298;DHT22;10808;48.010;11.326;2023-06-24T14:23:14;35.10;50.70
21298;DHT22;10808;48.010;11.326;2023-06-24T14:25:40;35.30;50.10
21298;DHT22;10808;48.010;11.326;2023-06-24T14:28:06;35.50;50.40
21298;DHT22;10808;48.010;11.326;2023-06-24T14:30:33;35.40;50.60
21298;DHT22;10808;48.010;11.326;2023-06-24T14:33:00;35.10;51.20
21298;DHT22;10808;48.010;11.326;2023-06-24T14:35:27;34.70;50.20
21298;DHT22;10808;48.010;11.326;2023-06-24T14:37:53;34.30;51.90
21298;DHT22;10808;48.010;11.326;2023-06-24T14:40:19;33.90;52.20
21298;DHT22;10808;48.010;11.326;2023-06-24T14:42:45;33.80;52.50
21298;DHT22;10808;48.010;11.326;2023-06-24T14:45:11;33.70;52.40
21298;DHT22;10808;48.010;11.326;2023-06-24T14:47:37;33.60;51.90
21298;DHT22;10808;48.010;11.326;2023-06-24T14:50:13;33.50;51.60
21298;DHT22;10808;48.010;11.326;2023-06-24T14:53:05;33.70;51.80
21298;DHT22;10808;48.010;11.326;2023-06-24T14:55:31;33.90;50.50
21298;DHT22;10808;48.010;11.326;2023-06-24T14:57:58;33.80;50.40
21298;DHT22;10808;48.010;11.326;2023-06-24T15:00:24;33.90;50.50
21298;DHT22;10808;48.010;11.326;2023-06-24T15:02:50;33.80;50.40
21298;DHT22;10808;48.010;11.326;2023-06-24T15:05:16;33.80;50.60
21298;DHT22;10808;48.010;11.326;2023-06-24T15:07:42;34.10;52.40
21298;DHT22;10808;48.010;11.326;2023-06-24T15:10:08;34.30;50.80
21298;DHT22;10808;48.010;11.326;2023-06-24T15:12:34;34.40;50.30
21298;DHT22;10808;48.010;11.326;2023-06-24T15:15:00;34.60;50.70
21298;DHT22;10808;48.010;11.326;2023-06-24T15:17:26;34.40;50.90
21298;DHT22;10808;48.010;11.326;2023-06-24T15:19:52;34.40;51.20
21298;DHT22;10808;48.010;11.326;2023-06-24T15:22:20;34.60;50.90
21298;DHT22;10808;48.010;11.326;2023-06-24T15:24:46;34.30;49.20
21298;DHT22;10808;48.010;11.326;2023-06-24T15:27:12;34.10;50.60
21298;DHT22;10808;48.010;11.326;2023-06-24T15:29:38;34.20;51.10
21298;DHT22;10808;48.010;11.326;2023-06-24T15:32:04;34.20;50.30
21298;DHT22;10808;48.010;11.326;2023-06-24T15:34:30;34.20;51.10
21298;DHT22;10808;48.010;11.326;2023-06-24T15:36:56;34.30;50.80
21298;DHT22;10808;48.010;11.326;2023-06-24T15:39:22;34.40;50.50
21298;DHT22;10808;48.010;11.326;2023-06-24T15:41:49;34.20;50.00
21298;DHT22;10808;48.010;11.326;2023-06-24T15:44:18;34.00;50.60
21298;DHT22;10808;48.010;11.326;2023-06-24T15:46:44;33.80;51.70